sensor_id;sensor_type;location;lat;lon;timestamp;P1;durP1;ratioP1;P2;durP2;ratioP2
43580;SDS011;29175;51.030;4.606;2024-03-06T00:01:20;35.75;;;16.50;;
43580;SDS011;29175;51.030;4.606;2024-03-06T00:03:46;40.38;;;17.20;;
43580;SDS011;29175;51.030;4.606;2024-03-06T00:06:13;37.72;;;16.83;;
43580;SDS011;29175;51.030;4.606;2024-03-06T00:08:40;33.33;;;16.65;;
43580;SDS011;29175;51.030;4.606;2024-03-06T00:11:08;38.30;;;18.05;;
43580;SDS011;29175;51.030;4.606;2024-03-06T00:13:34;32.10;;;17.42;;
43580;SDS011;29175;51.030;4.606;2024-03-06T00:15:59;33.58;;;17.10;;
43580;SDS011;29175;51.030;4.606;2024-03-06T00:18:26;35.30;;;16.58;;
43580;SDS011;29175;51.030;4.606;2024-03-06T00:20:53;37.83;;;16.45;;
43580;SDS011;29175;51.030;4.606;2024-03-06T00:23:20;32.30;;;16.83;;
43580;SDS011;29175;51.030;4.606;2024-03-06T00:25:46;33.70;;;16.73;;
43580;SDS011;29175;51.030;4.606;2024-03-06T00:28:12;33.25;;;16.30;;
43580;SDS011;29175;51.030;4.606;2024-03-06T00:30:39;35.78;;;15.80;;
43580;SDS011;29175;51.030;4.606;2024-03-06T00:33:04;30.98;;;16.23;;
43580;SDS011;29175;51.030;4.606;2024-03-06T00:35:30;35.30;;;16.08;;
43580;SDS011;29175;51.030;4.606;2024-03-06T00:37:57;33.10;;;17.27;;
43580;SDS011;29175;51.030;4.606;2024-03-06T00:40:27;33.10;;;16.48;;
43580;SDS011;29175;51.030;4.606;2024-03-06T00:42:56;34.70;;;17.10;;
43580;SDS011;29175;51.030;4.606;2024-03-06T00:45:22;35.20;;;17.42;;
43580;SDS011;29175;51.030;4.606;2024-03-06T00:47:51;30.30;;;15.65;;
43580;SDS011;29175;51.030;4.606;2024-03-06T00:50:17;30.92;;;15.65;;
43580;SDS011;29175;51.030;4.606;2024-03-06T00:52:46;30.40;;;15.45;;
43580;SDS011;29175;51.030;4.606;2024-03-06T00:55:15;28.52;;;15.35;;
43580;SDS011;29175;51.030;4.606;2024-03-06T00:57:42;32.90;;;14.85;;
43580;SDS011;29175;51.030;4.606;2024-03-06T01:00:08;30.67;;;15.07;;
43580;SDS011;29175;51.030;4.606;2024-03-06T01:02:39;28.25;;;14.38;;
43580;SDS011;29175;51.030;4.606;2024-03-06T01:05:05;29.90;;;14.52;;
43580;SDS011;29175;51.030;4.606;2024-03-06T01:07:32;23.92;;;13.43;;
43580;SDS011;29175;51.030;4.606;2024-03-06T01:10:00;37.85;;;14.63;;
43580;SDS011;29175;51.030;4.606;2024-03-06T01:12:27;26.73;;;14.30;;
43580;SDS011;29175;51.030;4.606;2024-03-06T01:14:55;26.73;;;14.27;;
43580;SDS011;29175;51.030;4.606;2024-03-06T01:17:21;28.25;;;13.82;;
43580;SDS011;29175;51.030;4.606;2024-03-06T01:19:49;30.23;;;14.25;;
43580;SDS011;29175;51.030;4.606;2024-03-06T01:22:15;29.75;;;14.10;;
43580;SDS011;29175;51.030;4.606;2024-03-06T01:24:44;27.15;;;13.98;;
43580;SDS011;29175;51.030;4.606;2024-03-06T01:27:14;25.30;;;13.50;;
43580;SDS011;29175;51.030;4.606;2024-03-06T01:29:41;26.67;;;13.63;;
43580;SDS011;29175;51.030;4.606;2024-03-06T01:32:07;25.13;;;12.35;;
43580;SDS011;29175;51.030;4.606;2024-03-06T01:34:33;24.80;;;13.35;;
43580;SDS011;29175;51.030;4.606;2024-03-06T01:36:59;26.52;;;13.70;;
43580;SDS011;29175;51.030;4.606;2024-03-06T01:39:25;28.42;;;13.43;;
43580;SDS011;29175;51.030;4.606;2024-03-06T01:41:51;28.08;;;13.07;;
43580;SDS011;29175;51.030;4.606;2024-03-06T01:44:19;27.33;;;14.48;;
43580;SDS011;29175;51.030;4.606;2024-03-06T01:46:46;24.05;;;12.07;;
43580;SDS011;29175;51.030;4.606;2024-03-06T01:49:13;24.67;;;12.40;;
43580;SDS011;29175;51.030;4.606;2024-03-06T01:51:41;27.42;;;13.52;;
43580;SDS011;29175;51.030;4.606;2024-03-06T01:54:11;30.30;;;13.38;;
43580;SDS011;29175;51.030;4.606;2024-03-06T01:56:38;32.00;;;13.27;;
43580;SDS011;29175;51.030;4.606;2024-03-06T01:59:09;24.15;;;11.95;;
43580;SDS011;29175;51.030;4.606;2024-03-06T02:01:36;31.42;;;12.70;;
43580;SDS011;29175;51.030;4.606;2024-03-06T02:04:03;28.88;;;12.85;;
43580;SDS011;29175;51.030;4.606;2024-03-06T02:06:30;22.73;;;11.82;;
43580;SDS011;29175;51.030;4.606;2024-03-06T02:08:56;23.67;;;12.05;;
43580;SDS011;29175;51.030;4.606;2024-03-06T02:11:23;23.70;;;11.63;;
43580;SDS011;29175;51.030;4.606;2024-03-06T02:13:49;26.67;;;12.48;;
43580;SDS011;29175;51.030;4.606;2024-03-06T02:16:15;27.65;;;11.75;;
43580;SDS011;29175;51.030;4.606;2024-03-06T02:18:53;23.00;;;11.65;;
43580;SDS011;29175;51.030;4.606;2024-03-06T02:21:20;23.33;;;11.73;;
43580;SDS011;29175;51.030;4.606;2024-03-06T02:23:46;26.92;;;12.13;;
43580;SDS011;29175;51.030;4.606;2024-03-06T02:26:12;21.02;;;11.73;;
43580;SDS011;29175;51.030;4.606;2024-03-06T02:28:39;24.77;;;12.45;;
43580;SDS011;29175;51.030;4.606;2024-03-06T02:31:11;28.48;;;12.15;;
43580;SDS011;29175;51.030;4.606;2024-03-06T02:33:36;24.25;;;12.23;;
43580;SDS011;29175;51.030;4.606;2024-03-06T02:36:02;22.15;;;10.88;;
43580;SDS011;29175;51.030;4.606;2024-03-06T02:38:29;22.77;;;11.38;;
43580;SDS011;29175;51.030;4.606;2024-03-06T02:40:56;20.73;;;11.25;;
43580;SDS011;29175;51.030;4.606;2024-03-06T02:43:23;23.70;;;11.75;;
43580;SDS011;29175;51.030;4.606;2024-03-06T02:45:50;33.03;;;11.68;;
43580;SDS011;29175;51.030;4.606;2024-03-06T02:48:16;25.08;;;10.95;;
43580;SDS011;29175;51.030;4.606;2024-03-06T02:50:41;22.48;;;10.77;;
43580;SDS011;29175;51.030;4.606;2024-03-06T02:53:09;23.42;;;12.10;;
43580;SDS011;29175;51.030;4.606;2024-03-06T02:55:35;23.30;;;11.43;;
43580;SDS011;29175;51.030;4.606;2024-03-06T02:58:02;27.98;;;11.52;;
43580;SDS011;29175;51.030;4.606;2024-03-06T03:00:28;22.80;;;10.88;;
43580;SDS011;29175;51.030;4.606;2024-03-06T03:05:23;24.60;;;12.47;;
43580;SDS011;29175;51.030;4.606;2024-03-06T03:07:50;21.90;;;11.88;;
43580;SDS011;29175;51.030;4.606;2024-03-06T03:10:17;26.80;;;11.85;;
43580;SDS011;29175;51.030;4.606;2024-03-06T03:12:44;27.83;;;14.10;;
43580;SDS011;29175;51.030;4.606;2024-03-06T03:15:10;29.02;;;14.15;;
43580;SDS011;29175;51.030;4.606;2024-03-06T03:17:38;28.27;;;12.93;;
43580;SDS011;29175;51.030;4.606;2024-03-06T03:20:05;25.80;;;12.57;;
43580;SDS011;29175;51.030;4.606;2024-03-06T03:22:37;24.08;;;12.15;;
43580;SDS011;29175;51.030;4.606;2024-03-06T03:25:08;23.98;;;12.25;;
43580;SDS011;29175;51.030;4.606;2024-03-06T03:27:36;23.70;;;12.00;;
43580;SDS011;29175;51.030;4.606;2024-03-06T03:30:03;25.63;;;11.93;;
43580;SDS011;29175;51.030;4.606;2024-03-06T03:32:30;23.52;;;12.25;;
43580;SDS011;29175;51.030;4.606;2024-03-06T03:34:57;20.17;;;11.15;;
43580;SDS011;29175;51.030;4.606;2024-03-06T03:37:22;25.95;;;11.85;;
43580;SDS011;29175;51.030;4.606;2024-03-06T03:39:51;26.83;;;12.38;;
43580;SDS011;29175;51.030;4.606;2024-03-06T03:42:17;23.05;;;11.80;;
43580;SDS011;29175;51.030;4.606;2024-03-06T03:44:44;21.23;;;11.05;;
43580;SDS011;29175;51.030;4.606;2024-03-06T03:47:10;21.02;;;11.30;;
43580;SDS011;29175;51.030;4.606;2024-03-06T03:49:35;26.48;;;11.60;;
43580;SDS011;29175;51.030;4.606;2024-03-06T03:52:02;20.88;;;11.20;;
43580;SDS011;29175;51.030;4.606;2024-03-06T03:54:29;27.38;;;10.90;;
43580;SDS011;29175;51.030;4.606;2024-03-06T03:56:56;19.90;;;11.15;;
43580;SDS011;29175;51.030;4.606;2024-03-06T03:59:25;25.58;;;12.00;;
43580;SDS011;29175;51.030;4.606;2024-03-06T04:01:52;26.52;;;11.73;;
43580;SDS011;29175;51.030;4.606;2024-03-06T04:04:17;19.63;;;10.25;;
43580;SDS011;29175;51.030;4.606;2024-03-06T04:06:44;21.88;;;11.20;;
43580;SDS011;29175;51.030;4.606;2024-03-06T04:09:11;24.77;;;11.63;;
43580;SDS011;29175;51.030;4.606;2024-03-06T04:14:11;18.25;;;10.00;;
43580;SDS011;29175;51.030;4.606;2024-03-06T04:16:39;18.20;;;10.38;;
43580;SDS011;29175;51.030;4.606;2024-03-06T04:19:07;20.65;;;11.07;;
43580;SDS011;29175;51.030;4.606;2024-03-06T04:21:33;22.58;;;10.63;;
43580;SDS011;29175;51.030;4.606;2024-03-06T04:23:59;19.38;;;10.00;;
43580;SDS011;29175;51.030;4.606;2024-03-06T04:26:27;18.58;;;9.48;;
43580;SDS011;29175;51.030;4.606;2024-03-06T04:28:55;18.23;;;9.73;;
43580;SDS011;29175;51.030;4.606;2024-03-06T04:31:23;16.85;;;9.75;;
43580;SDS011;29175;51.030;4.606;2024-03-06T04:33:51;20.80;;;11.00;;
43580;SDS011;29175;51.030;4.606;2024-03-06T04:36:18;19.30;;;11.20;;
43580;SDS011;29175;51.030;4.606;2024-03-06T04:38:45;22.38;;;11.27;;
43580;SDS011;29175;51.030;4.606;2024-03-06T04:41:11;20.50;;;10.63;;
43580;SDS011;29175;51.030;4.606;2024-03-06T04:43:37;20.92;;;10.52;;
43580;SDS011;29175;51.030;4.606;2024-03-06T04:46:12;22.17;;;10.90;;
43580;SDS011;29175;51.030;4.606;2024-03-06T04:48:40;21.20;;;10.73;;
43580;SDS011;29175;51.030;4.606;2024-03-06T04:51:06;21.35;;;9.75;;
43580;SDS011;29175;51.030;4.606;2024-03-06T04:53:33;17.27;;;9.65;;
43580;SDS011;29175;51.030;4.606;2024-03-06T04:55:59;17.40;;;10.18;;
43580;SDS011;29175;51.030;4.606;2024-03-06T04:58:26;17.17;;;8.68;;
43580;SDS011;29175;51.030;4.606;2024-03-06T05:00:52;16.20;;;9.50;;
43580;SDS011;29175;51.030;4.606;2024-03-06T05:03:18;16.15;;;9.35;;
43580;SDS011;29175;51.030;4.606;2024-03-06T05:05:44;18.98;;;10.23;;
43580;SDS011;29175;51.030;4.606;2024-03-06T05:08:10;19.42;;;10.32;;
43580;SDS011;29175;51.030;4.606;2024-03-06T05:10:37;18.08;;;10.25;;
43580;SDS011;29175;51.030;4.606;2024-03-06T05:13:06;20.30;;;10.82;;
43580;SDS011;29175;51.030;4.606;2024-03-06T05:15:31;21.45;;;10.68;;
43580;SDS011;29175;51.030;4.606;2024-03-06T05:17:57;17.08;;;9.43;;
43580;SDS011;29175;51.030;4.606;2024-03-06T05:22:55;17.23;;;9.60;;
43580;SDS011;29175;51.030;4.606;2024-03-06T05:25:21;15.48;;;8.90;;
43580;SDS011;29175;51.030;4.606;2024-03-06T05:27:48;16.75;;;9.30;;
43580;SDS011;29175;51.030;4.606;2024-03-06T05:30:15;19.40;;;9.30;;
43580;SDS011;29175;51.030;4.606;2024-03-06T05:32:40;19.42;;;9.23;;
43580;SDS011;29175;51.030;4.606;2024-03-06T05:35:11;19.52;;;9.93;;
43580;SDS011;29175;51.030;4.606;2024-03-06T05:37:37;15.65;;;9.20;;
43580;SDS011;29175;51.030;4.606;2024-03-06T05:40:04;20.77;;;10.88;;
43580;SDS011;29175;51.030;4.606;2024-03-06T05:42:32;20.25;;;10.95;;
43580;SDS011;29175;51.030;4.606;2024-03-06T05:44:58;26.77;;;12.65;;
43580;SDS011;29175;51.030;4.606;2024-03-06T05:49:59;18.77;;;10.98;;
43580;SDS011;29175;51.030;4.606;2024-03-06T05:52:26;18.85;;;10.00;;
43580;SDS011;29175;51.030;4.606;2024-03-06T05:54:52;20.73;;;10.25;;
43580;SDS011;29175;51.030;4.606;2024-03-06T05:57:19;19.50;;;10.57;;
43580;SDS011;29175;51.030;4.606;2024-03-06T06:02:14;20.60;;;11.35;;
43580;SDS011;29175;51.030;4.606;2024-03-06T06:04:42;24.27;;;12.32;;
43580;SDS011;29175;51.030;4.606;2024-03-06T06:07:11;28.50;;;11.25;;
43580;SDS011;29175;51.030;4.606;2024-03-06T06:09:37;21.27;;;10.82;;
43580;SDS011;29175;51.030;4.606;2024-03-06T06:12:04;21.95;;;11.57;;
43580;SDS011;29175;51.030;4.606;2024-03-06T06:14:33;25.02;;;11.95;;
43580;SDS011;29175;51.030;4.606;2024-03-06T06:16:59;26.77;;;11.38;;
43580;SDS011;29175;51.030;4.606;2024-03-06T06:19:25;23.63;;;11.95;;
43580;SDS011;29175;51.030;4.606;2024-03-06T06:21:53;22.73;;;11.18;;
43580;SDS011;29175;51.030;4.606;2024-03-06T06:24:20;24.87;;;12.30;;
43580;SDS011;29175;51.030;4.606;2024-03-06T06:26:46;23.63;;;11.80;;
43580;SDS011;29175;51.030;4.606;2024-03-06T06:29:12;26.08;;;12.63;;
43580;SDS011;29175;51.030;4.606;2024-03-06T06:31:38;26.55;;;12.73;;
43580;SDS011;29175;51.030;4.606;2024-03-06T06:34:05;26.88;;;11.38;;
43580;SDS011;29175;51.030;4.606;2024-03-06T06:36:33;22.30;;;10.50;;
43580;SDS011;29175;51.030;4.606;2024-03-06T06:39:01;26.85;;;10.45;;
43580;SDS011;29175;51.030;4.606;2024-03-06T06:41:28;39.05;;;11.48;;
43580;SDS011;29175;51.030;4.606;2024-03-06T06:43:55;37.63;;;11.55;;
43580;SDS011;29175;51.030;4.606;2024-03-06T06:46:22;23.45;;;11.25;;
43580;SDS011;29175;51.030;4.606;2024-03-06T06:48:48;26.65;;;12.05;;
43580;SDS011;29175;51.030;4.606;2024-03-06T06:51:14;26.00;;;12.35;;
43580;SDS011;29175;51.030;4.606;2024-03-06T06:53:42;25.73;;;11.82;;
43580;SDS011;29175;51.030;4.606;2024-03-06T06:56:08;23.90;;;10.70;;
43580;SDS011;29175;51.030;4.606;2024-03-06T06:58:34;20.67;;;10.43;;
43580;SDS011;29175;51.030;4.606;2024-03-06T07:01:02;25.27;;;11.13;;
43580;SDS011;29175;51.030;4.606;2024-03-06T07:03:29;21.00;;;10.40;;
43580;SDS011;29175;51.030;4.606;2024-03-06T07:05:55;21.35;;;10.93;;
43580;SDS011;29175;51.030;4.606;2024-03-06T07:08:22;20.67;;;9.73;;
43580;SDS011;29175;51.030;4.606;2024-03-06T07:10:50;16.08;;;8.48;;
43580;SDS011;29175;51.030;4.606;2024-03-06T07:13:19;21.88;;;9.30;;
43580;SDS011;29175;51.030;4.606;2024-03-06T07:15:44;21.40;;;10.32;;
43580;SDS011;29175;51.030;4.606;2024-03-06T07:18:10;19.55;;;9.80;;
43580;SDS011;29175;51.030;4.606;2024-03-06T07:20:39;19.25;;;10.15;;
43580;SDS011;29175;51.030;4.606;2024-03-06T07:25:34;22.00;;;11.17;;
43580;SDS011;29175;51.030;4.606;2024-03-06T07:28:00;20.02;;;9.90;;
43580;SDS011;29175;51.030;4.606;2024-03-06T07:30:25;26.02;;;10.98;;
43580;SDS011;29175;51.030;4.606;2024-03-06T07:32:52;24.63;;;10.25;;
43580;SDS011;29175;51.030;4.606;2024-03-06T07:35:19;28.25;;;10.10;;
43580;SDS011;29175;51.030;4.606;2024-03-06T07:37:45;32.97;;;10.32;;
43580;SDS011;29175;51.030;4.606;2024-03-06T07:40:11;19.85;;;9.27;;
43580;SDS011;29175;51.030;4.606;2024-03-06T07:42:38;25.15;;;10.95;;
43580;SDS011;29175;51.030;4.606;2024-03-06T07:45:04;22.35;;;10.80;;
43580;SDS011;29175;51.030;4.606;2024-03-06T07:47:32;21.77;;;10.45;;
43580;SDS011;29175;51.030;4.606;2024-03-06T07:49:58;21.67;;;10.85;;
43580;SDS011;29175;51.030;4.606;2024-03-06T07:52:25;23.15;;;10.25;;
43580;SDS011;29175;51.030;4.606;2024-03-06T07:54:51;24.80;;;10.45;;
43580;SDS011;29175;51.030;4.606;2024-03-06T07:57:18;49.13;;;12.25;;
43580;SDS011;29175;51.030;4.606;2024-03-06T07:59:44;22.33;;;11.23;;
43580;SDS011;29175;51.030;4.606;2024-03-06T08:02:11;23.33;;;11.10;;
43580;SDS011;29175;51.030;4.606;2024-03-06T08:04:37;27.60;;;10.63;;
43580;SDS011;29175;51.030;4.606;2024-03-06T08:07:02;20.73;;;9.80;;
43580;SDS011;29175;51.030;4.606;2024-03-06T08:09:28;17.27;;;9.48;;
43580;SDS011;29175;51.030;4.606;2024-03-06T08:11:54;20.75;;;9.52;;
43580;SDS011;29175;51.030;4.606;2024-03-06T08:14:20;16.98;;;8.10;;
43580;SDS011;29175;51.030;4.606;2024-03-06T08:16:46;20.10;;;8.23;;
43580;SDS011;29175;51.030;4.606;2024-03-06T08:19:12;15.13;;;7.43;;
43580;SDS011;29175;51.030;4.606;2024-03-06T08:21:38;13.85;;;7.72;;
43580;SDS011;29175;51.030;4.606;2024-03-06T08:24:03;14.98;;;7.57;;
43580;SDS011;29175;51.030;4.606;2024-03-06T08:26:29;15.90;;;7.40;;
43580;SDS011;29175;51.030;4.606;2024-03-06T08:28:55;13.85;;;6.80;;
43580;SDS011;29175;51.030;4.606;2024-03-06T08:31:21;19.05;;;7.72;;
43580;SDS011;29175;51.030;4.606;2024-03-06T08:33:46;19.48;;;7.15;;
43580;SDS011;29175;51.030;4.606;2024-03-06T08:36:13;19.55;;;7.97;;
43580;SDS011;29175;51.030;4.606;2024-03-06T08:38:41;18.15;;;7.55;;
43580;SDS011;29175;51.030;4.606;2024-03-06T08:41:07;17.42;;;6.97;;
43580;SDS011;29175;51.030;4.606;2024-03-06T08:43:32;13.05;;;6.65;;
43580;SDS011;29175;51.030;4.606;2024-03-06T08:45:58;16.55;;;6.93;;
43580;SDS011;29175;51.030;4.606;2024-03-06T08:48:24;16.20;;;6.63;;
43580;SDS011;29175;51.030;4.606;2024-03-06T08:50:49;15.80;;;5.93;;
43580;SDS011;29175;51.030;4.606;2024-03-06T08:53:16;12.88;;;6.75;;
43580;SDS011;29175;51.030;4.606;2024-03-06T08:55:42;12.18;;;5.60;;
43580;SDS011;29175;51.030;4.606;2024-03-06T08:58:07;10.63;;;5.68;;
43580;SDS011;29175;51.030;4.606;2024-03-06T09:00:34;15.10;;;5.68;;
43580;SDS011;29175;51.030;4.606;2024-03-06T09:03:00;14.70;;;6.20;;
43580;SDS011;29175;51.030;4.606;2024-03-06T09:05:25;12.48;;;5.82;;
43580;SDS011;29175;51.030;4.606;2024-03-06T09:07:51;15.88;;;6.93;;
43580;SDS011;29175;51.030;4.606;2024-03-06T09:10:17;14.82;;;5.72;;
43580;SDS011;29175;51.030;4.606;2024-03-06T09:12:44;15.88;;;5.90;;
43580;SDS011;29175;51.030;4.606;2024-03-06T09:15:10;14.00;;;5.68;;
43580;SDS011;29175;51.030;4.606;2024-03-06T09:17:37;11.35;;;5.85;;
43580;SDS011;29175;51.030;4.606;2024-03-06T09:20:03;10.02;;;6.07;;
43580;SDS011;29175;51.030;4.606;2024-03-06T09:22:37;12.57;;;6.20;;
43580;SDS011;29175;51.030;4.606;2024-03-06T09:25:04;11.52;;;5.57;;
43580;SDS011;29175;51.030;4.606;2024-03-06T09:27:30;14.40;;;5.80;;
43580;SDS011;29175;51.030;4.606;2024-03-06T09:29:56;12.43;;;6.07;;
43580;SDS011;29175;51.030;4.606;2024-03-06T09:32:22;10.45;;;5.63;;
43580;SDS011;29175;51.030;4.606;2024-03-06T09:34:48;11.15;;;6.00;;
43580;SDS011;29175;51.030;4.606;2024-03-06T09:37:14;10.70;;;5.60;;
43580;SDS011;29175;51.030;4.606;2024-03-06T09:39:41;11.57;;;6.45;;
43580;SDS011;29175;51.030;4.606;2024-03-06T09:42:06;13.60;;;5.68;;
43580;SDS011;29175;51.030;4.606;2024-03-06T09:44:32;13.15;;;5.32;;
43580;SDS011;29175;51.030;4.606;2024-03-06T09:46:59;12.90;;;5.55;;
43580;SDS011;29175;51.030;4.606;2024-03-06T09:49:31;8.10;;;4.85;;
43580;SDS011;29175;51.030;4.606;2024-03-06T09:51:58;11.85;;;4.88;;
43580;SDS011;29175;51.030;4.606;2024-03-06T09:54:25;10.80;;;5.00;;
43580;SDS011;29175;51.030;4.606;2024-03-06T09:56:51;10.48;;;4.68;;
43580;SDS011;29175;51.030;4.606;2024-03-06T09:59:17;10.48;;;5.03;;
43580;SDS011;29175;51.030;4.606;2024-03-06T10:01:50;11.75;;;5.03;;
43580;SDS011;29175;51.030;4.606;2024-03-06T10:04:20;11.85;;;4.65;;
43580;SDS011;29175;51.030;4.606;2024-03-06T10:06:48;11.73;;;4.07;;
43580;SDS011;29175;51.030;4.606;2024-03-06T10:09:18;6.70;;;3.63;;
43580;SDS011;29175;51.030;4.606;2024-03-06T10:11:44;7.93;;;3.67;;
43580;SDS011;29175;51.030;4.606;2024-03-06T10:14:10;6.25;;;3.08;;
43580;SDS011;29175;51.030;4.606;2024-03-06T10:16:51;10.55;;;3.80;;
43580;SDS011;29175;51.030;4.606;2024-03-06T10:19:17;8.90;;;3.53;;
43580;SDS011;29175;51.030;4.606;2024-03-06T10:21:44;16.83;;;3.60;;
43580;SDS011;29175;51.030;4.606;2024-03-06T10:24:22;5.57;;;2.60;;
43580;SDS011;29175;51.030;4.606;2024-03-06T10:26:49;5.28;;;3.08;;
43580;SDS011;29175;51.030;4.606;2024-03-06T10:29:19;5.07;;;2.70;;
43580;SDS011;29175;51.030;4.606;2024-03-06T10:31:53;7.25;;;2.88;;
43580;SDS011;29175;51.030;4.606;2024-03-06T10:34:20;7.95;;;2.90;;
43580;SDS011;29175;51.030;4.606;2024-03-06T10:37:04;6.05;;;2.63;;
43580;SDS011;29175;51.030;4.606;2024-03-06T10:39:31;5.15;;;3.13;;
43580;SDS011;29175;51.030;4.606;2024-03-06T10:42:03;6.88;;;3.30;;
43580;SDS011;29175;51.030;4.606;2024-03-06T10:44:33;8.18;;;3.35;;
43580;SDS011;29175;51.030;4.606;2024-03-06T10:47:00;8.45;;;3.08;;
43580;SDS011;29175;51.030;4.606;2024-03-06T10:49:27;4.97;;;3.05;;
43580;SDS011;29175;51.030;4.606;2024-03-06T10:52:01;5.68;;;2.65;;
43580;SDS011;29175;51.030;4.606;2024-03-06T10:54:31;5.20;;;2.40;;
43580;SDS011;29175;51.030;4.606;2024-03-06T10:56:59;7.78;;;2.47;;
43580;SDS011;29175;51.030;4.606;2024-03-06T10:59:27;4.68;;;2.05;;
43580;SDS011;29175;51.030;4.606;2024-03-06T11:01:59;3.70;;;2.20;;
43580;SDS011;29175;51.030;4.606;2024-03-06T11:04:28;5.85;;;2.20;;
43580;SDS011;29175;51.030;4.606;2024-03-06T11:06:55;4.75;;;1.98;;
43580;SDS011;29175;51.030;4.606;2024-03-06T11:11:57;8.90;;;3.13;;
43580;SDS011;29175;51.030;4.606;2024-03-06T11:14:24;4.35;;;2.70;;
43580;SDS011;29175;51.030;4.606;2024-03-06T11:19:22;7.13;;;3.00;;
43580;SDS011;29175;51.030;4.606;2024-03-06T11:21:47;4.22;;;2.85;;
43580;SDS011;29175;51.030;4.606;2024-03-06T11:27:02;4.47;;;2.60;;
43580;SDS011;29175;51.030;4.606;2024-03-06T11:30:18;5.47;;;2.47;;
43580;SDS011;29175;51.030;4.606;2024-03-06T11:32:36;7.10;;;2.53;;
43580;SDS011;29175;51.030;4.606;2024-03-06T11:35:04;5.50;;;2.90;;
43580;SDS011;29175;51.030;4.606;2024-03-06T11:37:35;5.28;;;2.70;;
43580;SDS011;29175;51.030;4.606;2024-03-06T11:40:03;6.28;;;3.05;;
43580;SDS011;29175;51.030;4.606;2024-03-06T11:42:33;7.60;;;3.00;;
43580;SDS011;29175;51.030;4.606;2024-03-06T11:45:15;7.10;;;2.95;;
43580;SDS011;29175;51.030;4.606;2024-03-06T11:50:27;6.40;;;3.08;;
43580;SDS011;29175;51.030;4.606;2024-03-06T11:52:54;5.47;;;2.80;;
43580;SDS011;29175;51.030;4.606;2024-03-06T11:55:21;4.63;;;2.65;;
43580;SDS011;29175;51.030;4.606;2024-03-06T11:57:47;6.32;;;2.83;;
43580;SDS011;29175;51.030;4.606;2024-03-06T12:00:13;5.03;;;2.55;;
43580;SDS011;29175;51.030;4.606;2024-03-06T12:02:40;5.93;;;2.60;;
43580;SDS011;29175;51.030;4.606;2024-03-06T12:05:07;5.75;;;2.70;;
43580;SDS011;29175;51.030;4.606;2024-03-06T12:07:44;4.85;;;3.05;;
43580;SDS011;29175;51.030;4.606;2024-03-06T12:10:13;8.82;;;2.78;;
43580;SDS011;29175;51.030;4.606;2024-03-06T12:12:43;7.45;;;3.28;;
43580;SDS011;29175;51.030;4.606;2024-03-06T12:15:10;4.47;;;3.10;;
43580;SDS011;29175;51.030;4.606;2024-03-06T12:17:49;7.70;;;3.25;;
43580;SDS011;29175;51.030;4.606;2024-03-06T12:22:49;10.73;;;3.38;;
43580;SDS011;29175;51.030;4.606;2024-03-06T12:25:25;7.28;;;3.47;;
43580;SDS011;29175;51.030;4.606;2024-03-06T12:28:05;7.40;;;3.47;;
43580;SDS011;29175;51.030;4.606;2024-03-06T12:30:44;12.05;;;3.10;;
43580;SDS011;29175;51.030;4.606;2024-03-06T12:33:11;6.63;;;2.92;;
43580;SDS011;29175;51.030;4.606;2024-03-06T12:35:42;4.18;;;2.83;;
43580;SDS011;29175;51.030;4.606;2024-03-06T12:38:14;5.82;;;2.92;;
43580;SDS011;29175;51.030;4.606;2024-03-06T12:40:41;8.40;;;3.10;;
43580;SDS011;29175;51.030;4.606;2024-03-06T12:43:08;6.43;;;3.40;;
43580;SDS011;29175;51.030;4.606;2024-03-06T12:45:36;5.43;;;2.75;;
43580;SDS011;29175;51.030;4.606;2024-03-06T12:48:02;6.18;;;2.90;;
43580;SDS011;29175;51.030;4.606;2024-03-06T12:50:29;4.85;;;2.83;;
43580;SDS011;29175;51.030;4.606;2024-03-06T12:52:55;10.52;;;4.05;;
43580;SDS011;29175;51.030;4.606;2024-03-06T12:55:21;12.73;;;4.78;;
43580;SDS011;29175;51.030;4.606;2024-03-06T12:57:47;9.85;;;4.35;;
43580;SDS011;29175;51.030;4.606;2024-03-06T13:00:13;8.35;;;4.20;;
43580;SDS011;29175;51.030;4.606;2024-03-06T13:02:43;10.57;;;4.28;;
43580;SDS011;29175;51.030;4.606;2024-03-06T13:05:09;8.80;;;3.63;;
43580;SDS011;29175;51.030;4.606;2024-03-06T13:07:35;8.65;;;3.38;;
43580;SDS011;29175;51.030;4.606;2024-03-06T13:10:01;11.85;;;4.13;;
43580;SDS011;29175;51.030;4.606;2024-03-06T13:12:28;9.05;;;4.10;;
43580;SDS011;29175;51.030;4.606;2024-03-06T13:14:54;11.95;;;3.80;;
43580;SDS011;29175;51.030;4.606;2024-03-06T13:17:19;8.32;;;3.70;;
43580;SDS011;29175;51.030;4.606;2024-03-06T13:19:46;7.90;;;3.80;;
43580;SDS011;29175;51.030;4.606;2024-03-06T13:22:12;9.02;;;3.65;;
43580;SDS011;29175;51.030;4.606;2024-03-06T13:24:37;8.30;;;3.63;;
43580;SDS011;29175;51.030;4.606;2024-03-06T13:27:04;9.95;;;3.85;;
43580;SDS011;29175;51.030;4.606;2024-03-06T13:29:30;12.05;;;4.10;;
43580;SDS011;29175;51.030;4.606;2024-03-06T13:31:56;8.80;;;4.03;;
43580;SDS011;29175;51.030;4.606;2024-03-06T13:34:22;11.00;;;4.18;;
43580;SDS011;29175;51.030;4.606;2024-03-06T13:36:49;10.13;;;3.70;;
43580;SDS011;29175;51.030;4.606;2024-03-06T13:39:15;8.07;;;4.20;;
43580;SDS011;29175;51.030;4.606;2024-03-06T13:41:40;10.82;;;4.20;;
43580;SDS011;29175;51.030;4.606;2024-03-06T13:44:06;9.07;;;4.05;;
43580;SDS011;29175;51.030;4.606;2024-03-06T13:46:33;11.55;;;4.20;;
43580;SDS011;29175;51.030;4.606;2024-03-06T13:49:00;8.60;;;4.03;;
43580;SDS011;29175;51.030;4.606;2024-03-06T13:51:26;7.72;;;3.67;;
43580;SDS011;29175;51.030;4.606;2024-03-06T13:53:53;8.27;;;3.90;;
43580;SDS011;29175;51.030;4.606;2024-03-06T13:56:18;6.70;;;3.50;;
43580;SDS011;29175;51.030;4.606;2024-03-06T13:58:44;10.85;;;3.85;;
43580;SDS011;29175;51.030;4.606;2024-03-06T14:01:10;6.43;;;3.55;;
43580;SDS011;29175;51.030;4.606;2024-03-06T14:03:35;8.35;;;3.90;;
43580;SDS011;29175;51.030;4.606;2024-03-06T14:06:03;7.55;;;3.70;;
43580;SDS011;29175;51.030;4.606;2024-03-06T14:08:29;6.47;;;3.10;;
43580;SDS011;29175;51.030;4.606;2024-03-06T14:10:55;7.22;;;3.38;;
43580;SDS011;29175;51.030;4.606;2024-03-06T14:13:20;8.38;;;3.40;;
43580;SDS011;29175;51.030;4.606;2024-03-06T14:15:46;10.15;;;3.58;;
43580;SDS011;29175;51.030;4.606;2024-03-06T14:18:14;8.27;;;3.60;;
43580;SDS011;29175;51.030;4.606;2024-03-06T14:20:40;10.18;;;3.67;;
43580;SDS011;29175;51.030;4.606;2024-03-06T14:23:05;6.90;;;3.30;;
43580;SDS011;29175;51.030;4.606;2024-03-06T14:25:32;6.85;;;3.40;;
43580;SDS011;29175;51.030;4.606;2024-03-06T14:28:03;9.52;;;3.80;;
43580;SDS011;29175;51.030;4.606;2024-03-06T14:30:30;7.50;;;3.10;;
43580;SDS011;29175;51.030;4.606;2024-03-06T14:32:56;4.72;;;2.10;;
43580;SDS011;29175;51.030;4.606;2024-03-06T14:35:22;4.10;;;2.15;;
43580;SDS011;29175;51.030;4.606;2024-03-06T14:37:51;6.88;;;2.47;;
43580;SDS011;29175;51.030;4.606;2024-03-06T14:40:16;5.13;;;2.33;;
43580;SDS011;29175;51.030;4.606;2024-03-06T14:42:43;7.22;;;2.50;;
43580;SDS011;29175;51.030;4.606;2024-03-06T14:45:09;3.97;;;2.50;;
43580;SDS011;29175;51.030;4.606;2024-03-06T14:47:35;6.57;;;2.40;;
43580;SDS011;29175;51.030;4.606;2024-03-06T14:50:01;4.03;;;2.20;;
43580;SDS011;29175;51.030;4.606;2024-03-06T14:52:27;6.78;;;2.35;;
43580;SDS011;29175;51.030;4.606;2024-03-06T14:54:52;5.28;;;2.10;;
43580;SDS011;29175;51.030;4.606;2024-03-06T14:57:19;6.78;;;2.45;;
43580;SDS011;29175;51.030;4.606;2024-03-06T14:59:49;5.05;;;2.08;;